createdAt,value
2022-11-25T00:01:05.283Z,20.10
2022-11-25T00:03:32.419Z,23.13
2022-11-25T00:06:08.299Z,23.80
2022-11-25T00:08:35.371Z,23.10
2022-11-25T00:11:02.821Z,22.57
2022-11-25T00:13:30.065Z,20.87
2022-11-25T00:15:57.204Z,21.37
2022-11-25T00:18:24.318Z,21.10
2022-11-25T00:20:51.395Z,23.93
2022-11-25T00:23:18.516Z,21.07
2022-11-25T00:25:45.606Z,26.60
2022-11-25T00:28:12.753Z,25.83
2022-11-25T00:30:39.814Z,26.00
2022-11-25T00:33:06.893Z,25.77
2022-11-25T00:35:35.432Z,26.63
2022-11-25T00:38:02.506Z,24.10
2022-11-25T00:40:29.577Z,24.97
2022-11-25T00:43:15.206Z,25.10
2022-11-25T00:45:42.875Z,28.10
2022-11-25T00:48:09.975Z,27.00
2022-11-25T00:50:37.070Z,28.17
2022-11-25T00:53:04.146Z,26.73
2022-11-25T00:55:51.214Z,26.73
2022-11-25T00:58:18.372Z,30.87
2022-11-25T01:00:45.497Z,26.03
2022-11-25T01:03:12.601Z,25.37
2022-11-25T01:05:39.714Z,26.40
2022-11-25T01:08:06.781Z,21.93
2022-11-25T01:10:33.879Z,23.07
2022-11-25T01:13:01.004Z,23.80
2022-11-25T01:15:28.091Z,25.93
2022-11-25T01:17:55.250Z,23.10
2022-11-25T01:20:22.368Z,24.00
2022-11-25T01:22:49.464Z,22.50
2022-11-25T01:25:16.576Z,23.03
2022-11-25T01:27:43.627Z,23.50
2022-11-25T01:30:10.985Z,23.97
2022-11-25T01:32:38.052Z,21.90
2022-11-25T01:35:05.429Z,22.97
2022-11-25T01:37:32.516Z,21.70
2022-11-25T01:39:59.616Z,23.83
2022-11-25T01:42:28.921Z,22.17
2022-11-25T01:45:28.791Z,24.90
2022-11-25T01:47:59.882Z,23.60
2022-11-25T01:50:27.687Z,23.53
2022-11-25T01:52:56.110Z,25.53
2022-11-25T01:55:26.790Z,25.30
2022-11-25T01:57:53.838Z,26.20
2022-11-25T02:00:21.170Z,25.10
2022-11-25T02:02:49.914Z,28.27
2022-11-25T02:05:18.532Z,33.83
2022-11-25T02:07:47.162Z,32.30
2022-11-25T02:10:20.120Z,25.33
2022-11-25T02:12:47.673Z,25.53
2022-11-25T02:15:16.021Z,29.10
2022-11-25T02:17:43.833Z,26.10
2022-11-25T02:20:12.464Z,25.57
2022-11-25T02:23:01.310Z,29.70
2022-11-25T02:25:32.956Z,30.77
2022-11-25T02:28:14.744Z,26.50
2022-11-25T02:30:42.487Z,34.50
2022-11-25T02:33:09.750Z,31.40
2022-11-25T02:35:38.217Z,37.27
2022-11-25T02:38:17.110Z,31.00
2022-11-25T02:40:49.668Z,30.43
2022-11-25T02:43:17.123Z,28.27
2022-11-25T02:45:50.164Z,28.90
2022-11-25T02:48:17.334Z,25.93
2022-11-25T02:50:44.461Z,27.20
2022-11-25T02:53:11.588Z,27.10
2022-11-25T02:55:38.786Z,25.47
2022-11-25T02:58:05.886Z,27.63
2022-11-25T03:00:32.977Z,24.33
2022-11-25T03:03:00.099Z,28.07
2022-11-25T03:05:27.268Z,28.37
2022-11-25T03:07:54.377Z,32.20
2022-11-25T03:10:21.871Z,29.03
2022-11-25T03:12:48.982Z,31.70
2022-11-25T03:15:16.112Z,32.43
2022-11-25T03:17:43.225Z,33.23
2022-11-25T03:20:10.545Z,39.97
2022-11-25T03:22:37.637Z,48.17
2022-11-25T03:25:04.883Z,41.37
2022-11-25T03:27:32.078Z,30.00
2022-11-25T03:29:59.133Z,38.93
2022-11-25T03:32:26.457Z,54.57
2022-11-25T03:34:53.641Z,33.07
2022-11-25T03:37:20.924Z,39.57
2022-11-25T03:39:48.059Z,38.03
2022-11-25T03:42:15.145Z,35.77
2022-11-25T03:44:42.286Z,32.30
2022-11-25T03:47:09.553Z,35.97
2022-11-25T03:49:36.642Z,35.17
2022-11-25T03:52:03.877Z,40.00
2022-11-25T03:54:30.980Z,33.43
2022-11-25T03:56:58.062Z,36.10
2022-11-25T03:59:25.217Z,33.67
2022-11-25T04:01:52.377Z,40.83
2022-11-25T04:04:19.502Z,44.47
2022-11-25T04:06:46.579Z,33.47
2022-11-25T04:09:13.692Z,33.43
2022-11-25T04:11:59.672Z,21.90
2022-11-25T04:14:26.822Z,26.77
2022-11-25T04:16:54.117Z,29.30
2022-11-25T04:19:21.270Z,32.67
2022-11-25T04:21:52.307Z,22.03
2022-11-25T04:24:20.074Z,28.67
2022-11-25T04:26:47.471Z,39.40
2022-11-25T04:29:14.595Z,24.00
2022-11-25T04:31:41.755Z,23.07
2022-11-25T04:34:08.935Z,22.70
2022-11-25T04:36:36.054Z,20.77
2022-11-25T04:39:03.212Z,22.67
2022-11-25T04:41:30.478Z,21.30
2022-11-25T04:44:00.213Z,22.33
2022-11-25T04:46:32.101Z,21.60
2022-11-25T04:48:59.207Z,20.67
2022-11-25T04:51:26.315Z,21.43
2022-11-25T04:53:53.454Z,24.83
2022-11-25T04:56:20.883Z,22.73
2022-11-25T04:59:06.562Z,31.50
2022-11-25T05:01:33.765Z,23.87
2022-11-25T05:04:00.931Z,20.33
2022-11-25T05:06:28.053Z,21.70
2022-11-25T05:08:55.209Z,22.10
2022-11-25T05:11:22.342Z,21.67
2022-11-25T05:13:49.439Z,21.07
2022-11-25T05:16:17.083Z,29.73
2022-11-25T05:18:44.276Z,22.60
2022-11-25T05:21:11.446Z,19.90
2022-11-25T05:23:38.540Z,19.50
2022-11-25T05:26:05.955Z,23.23
2022-11-25T05:28:33.133Z,24.00
2022-11-25T05:31:00.355Z,19.30
2022-11-25T05:33:28.012Z,18.73
2022-11-25T05:35:56.470Z,19.73
2022-11-25T05:38:23.621Z,19.07
2022-11-25T05:40:50.890Z,17.20
2022-11-25T05:43:18.102Z,17.07
2022-11-25T05:45:45.272Z,16.83
2022-11-25T05:48:12.468Z,16.07
2022-11-25T05:50:39.640Z,16.10
2022-11-25T05:53:06.851Z,18.30
2022-11-25T05:55:34.029Z,19.70
2022-11-25T05:58:01.235Z,19.07
2022-11-25T06:00:28.409Z,16.07
2022-11-25T06:02:55.614Z,15.63
2022-11-25T06:05:22.782Z,16.47
2022-11-25T06:07:50.265Z,17.30
2022-11-25T06:10:17.955Z,23.70
2022-11-25T06:12:45.400Z,21.40
2022-11-25T06:15:13.017Z,22.27
2022-11-25T06:17:40.129Z,25.13
2022-11-25T06:20:08.032Z,25.27
2022-11-25T06:22:35.148Z,35.37
2022-11-25T06:25:04.113Z,30.27
2022-11-25T06:27:50.020Z,33.20
2022-11-25T06:30:19.429Z,56.30
2022-11-25T06:32:46.583Z,51.10
2022-11-25T06:35:13.719Z,27.13
2022-11-25T06:37:41.321Z,33.20
2022-11-25T06:40:08.801Z,26.40
2022-11-25T06:42:35.929Z,27.00
2022-11-25T06:45:03.071Z,23.70
2022-11-25T06:47:30.200Z,21.70
2022-11-25T06:49:57.326Z,19.17
2022-11-25T06:52:24.483Z,18.63
2022-11-25T06:54:52.202Z,19.87
2022-11-25T06:57:20.027Z,21.13
2022-11-25T06:59:47.275Z,23.70
2022-11-25T07:02:14.750Z,23.93
2022-11-25T07:04:41.925Z,19.63
2022-11-25T07:07:09.780Z,25.70
2022-11-25T07:09:36.985Z,26.60
2022-11-25T07:12:05.855Z,29.70
2022-11-25T07:14:33.096Z,29.10
2022-11-25T07:17:00.240Z,22.30
2022-11-25T07:19:27.350Z,26.20
2022-11-25T07:21:54.488Z,22.07
2022-11-25T07:24:21.636Z,25.77
2022-11-25T07:26:48.749Z,36.00
2022-11-25T07:29:51.611Z,25.53
2022-11-25T07:32:09.985Z,22.90
2022-11-25T07:34:37.757Z,31.93
2022-11-25T07:37:06.071Z,20.47
2022-11-25T07:39:33.308Z,23.60
2022-11-25T07:42:00.502Z,20.57
2022-11-25T07:44:27.609Z,22.50
2022-11-25T07:46:54.764Z,20.07
2022-11-25T07:49:24.903Z,23.83
2022-11-25T07:51:56.747Z,18.57
2022-11-25T07:54:24.541Z,14.60
2022-11-25T07:56:51.759Z,12.17
2022-11-25T07:59:20.269Z,12.07
2022-11-25T08:01:49.414Z,12.87
2022-11-25T08:04:20.550Z,12.37
2022-11-25T08:06:48.983Z,13.50
2022-11-25T08:09:20.431Z,13.27
2022-11-25T08:11:48.217Z,13.47
2022-11-25T08:14:15.474Z,14.60
2022-11-25T08:16:43.115Z,14.33
2022-11-25T08:19:13.625Z,15.33
2022-11-25T08:21:41.015Z,13.47
2022-11-25T08:24:08.235Z,15.03
2022-11-25T08:26:37.551Z,15.33
2022-11-25T08:29:06.026Z,14.97
2022-11-25T08:31:34.436Z,13.80
2022-11-25T08:34:01.878Z,13.53
2022-11-25T08:36:29.523Z,14.37
2022-11-25T08:38:57.912Z,13.53
2022-11-25T08:41:29.891Z,15.07
2022-11-25T08:43:58.811Z,14.50
2022-11-25T08:46:28.054Z,14.57
2022-11-25T08:48:55.288Z,15.47
2022-11-25T08:51:24.102Z,15.63
2022-11-25T08:53:51.330Z,14.37
2022-11-25T08:56:22.849Z,13.27
2022-11-25T08:58:52.888Z,13.87
2022-11-25T09:01:20.980Z,13.73
2022-11-25T09:03:49.283Z,11.67
2022-11-25T09:06:16.379Z,12.70
2022-11-25T09:08:44.822Z,12.60
2022-11-25T09:11:12.359Z,10.57
2022-11-25T09:13:40.021Z,9.70
2022-11-25T09:16:08.863Z,9.07
2022-11-25T09:18:37.150Z,8.63
2022-11-25T09:21:11.388Z,9.30
2022-11-25T09:23:39.940Z,10.00
2022-11-25T09:26:07.663Z,11.63
2022-11-25T09:28:35.563Z,12.27
2022-11-25T09:31:09.490Z,15.40
2022-11-25T09:33:36.746Z,21.50
2022-11-25T09:36:05.944Z,29.97
2022-11-25T09:38:34.137Z,23.00
2022-11-25T09:41:04.325Z,18.47
2022-11-25T09:43:54.852Z,19.50
2022-11-25T09:46:43.096Z,19.23
2022-11-25T09:49:31.458Z,20.27
2022-11-25T09:52:21.858Z,20.23
2022-11-25T09:54:54.405Z,20.97
2022-11-25T09:57:28.784Z,20.63
2022-11-25T10:00:03.013Z,19.77
2022-11-25T10:02:40.487Z,18.93
2022-11-25T10:05:13.476Z,18.47
2022-11-25T10:07:42.484Z,18.60
2022-11-25T10:10:16.555Z,19.13
2022-11-25T10:12:45.516Z,19.57
2022-11-25T10:15:26.071Z,20.53
2022-11-25T10:17:54.788Z,19.17
2022-11-25T10:20:23.571Z,18.70
2022-11-25T10:23:10.945Z,19.83
2022-11-25T10:25:48.390Z,17.87
2022-11-25T10:28:18.625Z,18.33
2022-11-25T10:30:55.314Z,18.73
2022-11-25T10:33:25.576Z,19.17
2022-11-25T10:36:01.255Z,19.83
2022-11-25T10:38:28.361Z,22.30
2022-11-25T10:40:56.142Z,22.93
2022-11-25T10:43:27.268Z,25.70
2022-11-25T10:46:16.257Z,22.53
2022-11-25T10:48:46.217Z,19.40
2022-11-25T10:51:31.513Z,25.07
2022-11-25T10:54:16.638Z,21.40
2022-11-25T10:56:54.383Z,27.60
2022-11-25T10:59:33.560Z,27.70
2022-11-25T11:02:19.388Z,23.87
2022-11-25T11:04:52.807Z,21.67
2022-11-25T11:07:19.989Z,22.43
2022-11-25T11:09:48.785Z,17.90
2022-11-25T11:12:24.337Z,18.50
2022-11-25T11:14:52.316Z,18.93
2022-11-25T11:17:31.834Z,17.50
2022-11-25T11:20:14.968Z,17.27
2022-11-25T11:23:09.248Z,17.00
2022-11-25T11:25:38.070Z,17.30
2022-11-25T11:28:24.627Z,16.00
2022-11-25T11:31:00.627Z,14.37
2022-11-25T11:33:36.160Z,15.10
2022-11-25T11:36:06.023Z,16.27
2022-11-25T11:38:35.190Z,14.60
2022-11-25T11:41:16.929Z,11.90
2022-11-25T11:43:54.502Z,11.20
2022-11-25T11:46:21.666Z,11.90
2022-11-25T11:48:54.585Z,13.27
2022-11-25T11:51:24.478Z,15.27
2022-11-25T11:53:51.544Z,16.47
2022-11-25T11:56:35.459Z,12.33
2022-11-25T11:59:18.009Z,12.87
2022-11-25T12:01:47.995Z,12.23
2022-11-25T12:04:15.169Z,12.13
2022-11-25T12:06:43.795Z,12.73
2022-11-25T12:09:16.844Z,12.00
2022-11-25T12:11:45.609Z,13.43
2022-11-25T12:14:15.799Z,14.33
2022-11-25T12:16:56.593Z,20.63
2022-11-25T12:19:27.862Z,17.00
2022-11-25T12:22:01.331Z,17.23
2022-11-25T12:24:32.059Z,15.77
2022-11-25T12:27:11.734Z,15.80
2022-11-25T12:29:42.059Z,15.53
2022-11-25T12:32:18.541Z,14.27
2022-11-25T12:34:51.101Z,15.70
2022-11-25T12:37:22.047Z,16.40
2022-11-25T12:40:03.687Z,15.53
2022-11-25T12:42:32.124Z,15.60
2022-11-25T12:45:05.939Z,14.43
2022-11-25T12:47:33.376Z,17.37
2022-11-25T12:50:00.672Z,15.57
2022-11-25T12:52:43.410Z,13.73
2022-11-25T12:55:16.393Z,14.33
2022-11-25T12:57:49.722Z,15.33
2022-11-25T13:00:43.291Z,14.20
2022-11-25T13:03:14.288Z,13.23
2022-11-25T13:05:41.537Z,12.80
2022-11-25T13:08:27.598Z,13.57
2022-11-25T13:11:01.084Z,14.07
2022-11-25T13:13:50.144Z,15.10
2022-11-25T13:16:18.777Z,13.43
2022-11-25T13:18:47.079Z,14.20
2022-11-25T13:21:15.365Z,14.50
2022-11-25T13:23:49.101Z,15.50
2022-11-25T13:26:33.776Z,15.77
2022-11-25T13:29:01.803Z,15.87
2022-11-25T13:31:33.280Z,14.87
2022-11-25T13:34:08.531Z,14.80
2022-11-25T13:36:52.557Z,16.73
2022-11-25T13:39:29.038Z,15.07
2022-11-25T13:42:19.435Z,14.10
2022-11-25T13:44:51.577Z,14.30
2022-11-25T13:47:38.917Z,15.37
2022-11-25T13:50:10.688Z,14.70
2022-11-25T13:52:44.034Z,15.47
2022-11-25T13:55:31.639Z,13.97
2022-11-25T13:58:04.815Z,16.93
2022-11-25T14:00:34.811Z,22.37
2022-11-25T14:03:36.977Z,20.50
2022-11-25T14:06:13.234Z,15.40
2022-11-25T14:08:46.904Z,15.20
2022-11-25T14:11:34.317Z,14.33
2022-11-25T14:14:09.758Z,14.43
2022-11-25T14:16:44.750Z,14.57
2022-11-25T14:19:49.517Z,15.43
2022-11-25T14:22:07.902Z,14.40
2022-11-25T14:24:38.240Z,14.93
2022-11-25T14:27:05.898Z,14.20
2022-11-25T14:29:32.981Z,15.23
2022-11-25T14:32:05.952Z,16.27
2022-11-25T14:34:35.102Z,15.73
2022-11-25T14:37:08.890Z,16.67
2022-11-25T14:39:38.647Z,16.33
2022-11-25T14:42:17.525Z,17.97
2022-11-25T14:44:47.738Z,18.13
2022-11-25T14:47:14.848Z,17.90
2022-11-25T14:49:49.189Z,17.43
2022-11-25T14:52:35.913Z,17.73
2022-11-25T14:55:04.431Z,17.63
2022-11-25T14:57:36.674Z,19.17
2022-11-25T15:00:08.224Z,19.03
2022-11-25T15:02:36.716Z,19.60
2022-11-25T15:05:03.827Z,22.10
2022-11-25T15:07:31.582Z,21.50
2022-11-25T15:09:58.974Z,22.00
2022-11-25T15:12:29.620Z,22.90
2022-11-25T15:14:57.224Z,21.73
2022-11-25T15:17:29.482Z,25.10
2022-11-25T15:19:58.257Z,25.83
2022-11-25T15:22:25.811Z,25.77
2022-11-25T15:24:55.979Z,24.30
2022-11-25T15:27:27.496Z,22.97
2022-11-25T15:29:55.470Z,25.07
2022-11-25T15:32:30.323Z,24.27
2022-11-25T15:34:58.970Z,25.13
2022-11-25T15:37:26.230Z,23.60
2022-11-25T15:40:11.868Z,24.17
2022-11-25T15:42:38.972Z,24.33
2022-11-25T15:45:10.664Z,24.57
2022-11-25T15:47:37.874Z,28.00
2022-11-25T15:50:05.009Z,26.97
2022-11-25T15:52:40.613Z,28.87
2022-11-25T15:55:08.913Z,29.63
2022-11-25T15:57:37.211Z,29.50
2022-11-25T16:00:14.096Z,29.90
2022-11-25T16:02:44.295Z,29.40
2022-11-25T16:05:14.700Z,28.40
2022-11-25T16:07:51.048Z,30.27
2022-11-25T16:10:31.581Z,28.87
2022-11-25T16:13:21.398Z,26.37
2022-11-25T16:16:01.417Z,22.93
2022-11-25T16:18:41.428Z,15.47
2022-11-25T16:21:10.955Z,13.47
2022-11-25T16:23:39.217Z,13.83
2022-11-25T16:26:17.735Z,14.90
2022-11-25T16:28:51.917Z,14.70
2022-11-25T16:31:19.633Z,15.20
2022-11-25T16:33:46.821Z,15.80
2022-11-25T16:36:14.024Z,28.10
2022-11-25T16:38:41.122Z,27.93
2022-11-25T16:41:17.016Z,31.40
2022-11-25T16:43:44.191Z,38.53
2022-11-25T16:46:14.757Z,47.03
2022-11-25T16:48:41.952Z,56.63
2022-11-25T16:51:14.881Z,45.70
2022-11-25T16:53:42.106Z,32.13
2022-11-25T16:56:12.361Z,41.57
2022-11-25T16:58:39.487Z,61.70
2022-11-25T17:01:06.654Z,48.50
2022-11-25T17:03:34.286Z,52.90
2022-11-25T17:06:01.389Z,38.90
2022-11-25T17:08:28.536Z,35.93
2022-11-25T17:10:58.725Z,35.37
2022-11-25T17:13:25.829Z,41.70
2022-11-25T17:15:53.033Z,45.17
2022-11-25T17:18:20.362Z,45.60
2022-11-25T17:20:47.551Z,49.83
2022-11-25T17:23:16.102Z,40.77
2022-11-25T17:25:50.144Z,42.17
2022-11-25T17:28:18.458Z,40.47
2022-11-25T17:30:46.125Z,29.63
2022-11-25T17:33:17.944Z,19.40
2022-11-25T17:35:46.019Z,14.03
2022-11-25T17:38:14.825Z,15.63
2022-11-25T17:40:43.500Z,16.53
2022-11-25T17:43:15.771Z,15.73
2022-11-25T17:45:43.839Z,19.20
2022-11-25T17:48:20.093Z,15.77
2022-11-25T17:50:47.422Z,13.17
2022-11-25T17:53:14.522Z,18.50
2022-11-25T17:55:42.753Z,14.73
2022-11-25T17:58:12.229Z,18.20
2022-11-25T18:00:40.116Z,12.60
2022-11-25T18:03:10.433Z,15.20
2022-11-25T18:05:37.562Z,11.17
2022-11-25T18:08:04.897Z,17.57
2022-11-25T18:10:32.216Z,12.33
2022-11-25T18:12:59.514Z,17.67
2022-11-25T18:15:30.842Z,11.27
2022-11-25T18:18:03.387Z,11.53
2022-11-25T18:20:32.808Z,10.30
2022-11-25T18:23:00.796Z,11.33
2022-11-25T18:25:30.661Z,11.37
2022-11-25T18:27:58.878Z,10.87
2022-11-25T18:30:27.209Z,10.57
2022-11-25T18:32:56.153Z,12.03
2022-11-25T18:35:31.101Z,12.17
2022-11-25T18:38:01.346Z,15.53
2022-11-25T18:40:29.904Z,11.40
2022-11-25T18:42:58.239Z,12.30
2022-11-25T18:45:27.180Z,11.13
2022-11-25T18:47:54.368Z,10.40
2022-11-25T18:50:23.270Z,10.70
2022-11-25T18:52:50.908Z,11.97
2022-11-25T18:55:18.965Z,13.17
2022-11-25T18:57:48.159Z,15.30
2022-11-25T19:00:33.519Z,13.63
2022-11-25T19:03:01.468Z,11.23
2022-11-25T19:05:32.766Z,10.63
2022-11-25T19:08:00.106Z,10.47
2022-11-25T19:10:32.156Z,10.17
2022-11-25T19:13:01.734Z,11.50
2022-11-25T19:15:28.944Z,11.13
2022-11-25T19:18:01.358Z,11.47
2022-11-25T19:20:30.174Z,13.23
2022-11-25T19:23:00.887Z,14.07
2022-11-25T19:25:28.572Z,11.43
2022-11-25T19:27:57.967Z,13.53
2022-11-25T19:30:26.679Z,16.57
2022-11-25T19:32:56.490Z,17.80
2022-11-25T19:35:27.124Z,19.03
2022-11-25T19:37:54.317Z,19.37
2022-11-25T19:40:22.403Z,13.20
2022-11-25T19:42:49.567Z,11.00
2022-11-25T19:45:17.975Z,11.07
2022-11-25T19:47:46.124Z,10.70
2022-11-25T19:50:33.488Z,12.30
2022-11-25T19:53:00.689Z,10.83
2022-11-25T19:55:32.363Z,11.33
2022-11-25T19:58:00.110Z,13.17
2022-11-25T20:00:27.257Z,13.13
2022-11-25T20:02:55.293Z,16.37
2022-11-25T20:05:42.699Z,18.97
2022-11-25T20:08:18.121Z,21.60
2022-11-25T20:10:45.302Z,18.10
2022-11-25T20:13:12.442Z,24.80
2022-11-25T20:15:40.349Z,30.10
2022-11-25T20:18:07.880Z,25.73
2022-11-25T20:20:36.292Z,26.97
2022-11-25T20:23:12.742Z,20.63
2022-11-25T20:25:47.282Z,19.73
2022-11-25T20:28:17.348Z,19.03
2022-11-25T20:30:44.848Z,19.13
2022-11-25T20:33:12.215Z,19.47
2022-11-25T20:35:40.572Z,19.43
2022-11-25T20:38:12.155Z,19.47
2022-11-25T20:40:39.238Z,18.97
2022-11-25T20:43:06.961Z,17.93
2022-11-25T20:45:34.160Z,16.43
2022-11-25T20:48:01.505Z,14.60
2022-11-25T20:50:29.995Z,13.87
2022-11-25T20:52:57.139Z,15.97
2022-11-25T20:55:25.192Z,28.77
2022-11-25T20:57:52.851Z,41.97
2022-11-25T21:00:23.940Z,30.33
2022-11-25T21:02:51.636Z,27.67
2022-11-25T21:05:19.099Z,27.93
2022-11-25T21:07:47.106Z,26.70
2022-11-25T21:10:20.092Z,28.47
2022-11-25T21:12:47.454Z,33.83
2022-11-25T21:15:18.709Z,32.93
2022-11-25T21:17:45.884Z,30.20
2022-11-25T21:20:13.892Z,26.83
2022-11-25T21:22:43.344Z,23.87
2022-11-25T21:25:15.267Z,23.17
2022-11-25T21:27:42.642Z,26.70
2022-11-25T21:30:18.266Z,27.07
2022-11-25T21:32:45.522Z,25.37
2022-11-25T21:35:13.277Z,23.07
2022-11-25T21:37:41.706Z,22.63
2022-11-25T21:40:15.404Z,21.83
2022-11-25T21:42:42.757Z,20.20
2022-11-25T21:45:14.064Z,22.37
2022-11-25T21:47:41.163Z,20.10
2022-11-25T21:50:15.746Z,18.37
2022-11-25T21:52:42.970Z,19.27
2022-11-25T21:55:12.833Z,17.50
2022-11-25T21:57:40.393Z,36.57
2022-11-25T22:00:18.538Z,38.60
2022-11-25T22:02:45.736Z,34.70
2022-11-25T22:05:16.928Z,32.37
2022-11-25T22:07:44.387Z,33.67
2022-11-25T22:10:12.714Z,34.60
2022-11-25T22:12:41.665Z,36.63
2022-11-25T22:15:29.293Z,36.93
2022-11-25T22:17:57.311Z,34.93
2022-11-25T22:20:26.650Z,34.13
2022-11-25T22:22:53.947Z,28.90
2022-11-25T22:25:21.251Z,20.23
2022-11-25T22:27:48.771Z,15.57
2022-11-25T22:30:19.491Z,16.53
2022-11-25T22:32:47.612Z,16.63
2022-11-25T22:35:19.553Z,17.50
2022-11-25T22:37:53.548Z,18.10
2022-11-25T22:40:22.049Z,16.87
2022-11-25T22:42:50.785Z,18.43
2022-11-25T22:45:21.392Z,31.27
2022-11-25T22:47:48.954Z,34.30
2022-11-25T22:50:16.053Z,34.17
2022-11-25T22:52:43.213Z,30.50
2022-11-25T22:55:21.549Z,29.70
2022-11-25T22:57:49.751Z,27.97
2022-11-25T23:00:25.309Z,26.27
2022-11-25T23:02:53.334Z,27.13
2022-11-25T23:05:32.953Z,28.63
2022-11-25T23:08:01.035Z,28.03
2022-11-25T23:10:30.216Z,20.83
2022-11-25T23:12:57.437Z,21.10
2022-11-25T23:15:24.999Z,16.57
2022-11-25T23:17:54.138Z,12.53
2022-11-25T23:20:23.322Z,11.33
2022-11-25T23:22:50.455Z,10.70
2022-11-25T23:25:20.698Z,10.73
2022-11-25T23:27:48.132Z,11.53
2022-11-25T23:30:19.710Z,12.40
2022-11-25T23:32:49.080Z,11.83
2022-11-25T23:35:20.425Z,13.67
2022-11-25T23:37:52.183Z,13.50
2022-11-25T23:40:20.852Z,15.13
2022-11-25T23:42:48.467Z,14.50
2022-11-25T23:45:16.811Z,13.70
2022-11-25T23:47:45.313Z,13.30
2022-11-25T23:50:30.357Z,12.67
2022-11-25T23:53:00.813Z,11.70
2022-11-25T23:55:30.240Z,12.60
2022-11-25T23:57:57.447Z,11.27
